Grafenwoehr, Germany

8:32 PM CET on February 13, 2016 (GMT +0100)
Grafenwohr Army Air Field | | Change Station
CLOSE
Current Station
Airport
Location: Grafenwoehr,
Elevation: 1362 ft
Nearby Weather Stations

Elev 1362 ft 49.70 °N, 11.94 °E | Updated 17 minutes ago

Overcast
Overcast
36 °F
Feels Like 33 °F
N
4
Wind Variable Wind from East

Today
High -- | Low -- °F
--% Chance of Precip.
Yesterday
High -- | Low -- °F
Precip. -- in
Pressure 29.19 in
Visibility 3.7 miles
Clouds Mostly Cloudy 900 ft
Overcast 2300 ft
Windchill 33 °F
Dew Point 34 °F
Humidity 93%
Rainfall 0.00 in
Snow Depth Not available.
7:26 AM 5:26 PM
Waxing Crescent, 33% visible
SPECI ETIC 131915Z AUTO 10003KT 6000 BR BKN009 OVC023 02/01 A2919 RMK AO2 CIG 007V009
Pressure 29.19 in
Visibility 3.7 miles
Clouds Mostly Cloudy 900 ft
Overcast 2300 ft
Windchill 33 °F
Dew Point 34 °F
Humidity 93%
Rainfall 0.00 in
Snow Depth Not available.
7:26 AM 5:26 PM
Waxing Crescent, 33% visible
SPECI ETIC 131915Z AUTO 10003KT 6000 BR BKN009 OVC023 02/01 A2919 RMK AO2 CIG 007V009

10-Day Weather Forecast

Almanac

Astronomy

Feb. 13, 2016 Rise Set
Actual Time
Civil Twilight
Nautical Twilight
Astronomical Twilight
Moon
Length of Visible Light
Length of Day
Tomorrow will be .
, % of the Moon is Illuminated

Today's Extremes

Country Highs Country Lows

Community

WunderPhotos

Upload Photos

1,892,642 photos uploaded!

WunderBlog® & News

Nearby

Air Quality

  Air Quality AQ Index Pollutant
Not available.

Snow Depth

Station Depth Elevation

Earthquake Activity

City Distance Mag. Time & Date
Minimum magnitude displayed is 2.5.

Coastal Water Temperatures

Place Temperature

Stations

Nearby Weather Stations

Station Location Temp. Windchill Dew Point Humidity Wind Precip. Elev Updated Type